sensor_id;sensor_type;location;lat;lon;timestamp;P1;durP1;ratioP1;P2;durP2;ratioP2
37545;SDS011;23389;52.484;13.572;2023-02-21T00:02:10;11.73;;;7.53;;
37545;SDS011;23389;52.484;13.572;2023-02-21T00:04:54;11.45;;;6.97;;
37545;SDS011;23389;52.484;13.572;2023-02-21T00:07:38;11.63;;;7.22;;
37545;SDS011;23389;52.484;13.572;2023-02-21T00:10:22;10.80;;;6.93;;
37545;SDS011;23389;52.484;13.572;2023-02-21T00:13:06;10.48;;;6.97;;
37545;SDS011;23389;52.484;13.572;2023-02-21T00:15:50;10.43;;;7.03;;
37545;SDS011;23389;52.484;13.572;2023-02-21T00:18:34;11.55;;;7.68;;
37545;SDS011;23389;52.484;13.572;2023-02-21T00:21:19;10.75;;;6.35;;
37545;SDS011;23389;52.484;13.572;2023-02-21T00:24:03;11.70;;;7.05;;
37545;SDS011;23389;52.484;13.572;2023-02-21T00:26:46;12.32;;;7.32;;
37545;SDS011;23389;52.484;13.572;2023-02-21T00:29:30;14.10;;;8.07;;
37545;SDS011;23389;52.484;13.572;2023-02-21T00:32:14;12.27;;;8.48;;
37545;SDS011;23389;52.484;13.572;2023-02-21T00:34:58;11.80;;;8.00;;
37545;SDS011;23389;52.484;13.572;2023-02-21T00:37:42;12.90;;;8.23;;
37545;SDS011;23389;52.484;13.572;2023-02-21T00:40:26;11.73;;;8.05;;
37545;SDS011;23389;52.484;13.572;2023-02-21T00:43:10;13.82;;;8.63;;
37545;SDS011;23389;52.484;13.572;2023-02-21T00:45:54;13.23;;;7.63;;
37545;SDS011;23389;52.484;13.572;2023-02-21T00:48:38;14.00;;;8.77;;
37545;SDS011;23389;52.484;13.572;2023-02-21T00:51:22;13.32;;;8.35;;
37545;SDS011;23389;52.484;13.572;2023-02-21T00:54:06;13.38;;;8.65;;
37545;SDS011;23389;52.484;13.572;2023-02-21T00:56:50;13.15;;;8.55;;
37545;SDS011;23389;52.484;13.572;2023-02-21T00:59:34;13.73;;;9.30;;
37545;SDS011;23389;52.484;13.572;2023-02-21T01:02:18;12.50;;;8.30;;
37545;SDS011;23389;52.484;13.572;2023-02-21T01:05:02;13.88;;;8.90;;
37545;SDS011;23389;52.484;13.572;2023-02-21T01:07:46;13.48;;;8.75;;
37545;SDS011;23389;52.484;13.572;2023-02-21T01:10:30;13.27;;;8.85;;
37545;SDS011;23389;52.484;13.572;2023-02-21T01:13:14;14.13;;;9.30;;
37545;SDS011;23389;52.484;13.572;2023-02-21T01:15:58;14.63;;;9.70;;
37545;SDS011;23389;52.484;13.572;2023-02-21T01:18:42;13.27;;;8.93;;
37545;SDS011;23389;52.484;13.572;2023-02-21T01:21:25;13.52;;;9.05;;
37545;SDS011;23389;52.484;13.572;2023-02-21T01:24:11;13.73;;;9.82;;
37545;SDS011;23389;52.484;13.572;2023-02-21T01:26:55;13.95;;;10.20;;
37545;SDS011;23389;52.484;13.572;2023-02-21T01:29:39;12.30;;;8.63;;
37545;SDS011;23389;52.484;13.572;2023-02-21T01:32:23;12.52;;;9.15;;
37545;SDS011;23389;52.484;13.572;2023-02-21T01:35:07;14.45;;;9.75;;
37545;SDS011;23389;52.484;13.572;2023-02-21T01:37:51;13.98;;;10.02;;
37545;SDS011;23389;52.484;13.572;2023-02-21T01:40:38;14.13;;;9.80;;
37545;SDS011;23389;52.484;13.572;2023-02-21T01:43:23;14.23;;;9.45;;
37545;SDS011;23389;52.484;13.572;2023-02-21T01:46:08;14.48;;;9.98;;
37545;SDS011;23389;52.484;13.572;2023-02-21T01:48:53;15.35;;;10.27;;
37545;SDS011;23389;52.484;13.572;2023-02-21T01:51:38;16.73;;;10.18;;
37545;SDS011;23389;52.484;13.572;2023-02-21T01:54:22;13.95;;;9.95;;
37545;SDS011;23389;52.484;13.572;2023-02-21T01:57:08;12.32;;;8.88;;
37545;SDS011;23389;52.484;13.572;2023-02-21T01:59:52;16.00;;;10.90;;
37545;SDS011;23389;52.484;13.572;2023-02-21T02:02:52;15.13;;;9.70;;
37545;SDS011;23389;52.484;13.572;2023-02-21T02:05:37;15.88;;;10.15;;
37545;SDS011;23389;52.484;13.572;2023-02-21T02:08:22;14.48;;;10.55;;
37545;SDS011;23389;52.484;13.572;2023-02-21T02:14:12;12.70;;;9.20;;
37545;SDS011;23389;52.484;13.572;2023-02-21T02:16:44;14.63;;;9.65;;
37545;SDS011;23389;52.484;13.572;2023-02-21T02:27:11;15.40;;;10.23;;
37545;SDS011;23389;52.484;13.572;2023-02-21T02:29:46;14.25;;;9.55;;
37545;SDS011;23389;52.484;13.572;2023-02-21T02:32:23;14.45;;;9.63;;
37545;SDS011;23389;52.484;13.572;2023-02-21T02:37:28;15.63;;;10.52;;
37545;SDS011;23389;52.484;13.572;2023-02-21T02:40:08;17.25;;;10.45;;
37545;SDS011;23389;52.484;13.572;2023-02-21T02:45:25;15.90;;;10.20;;
37545;SDS011;23389;52.484;13.572;2023-02-21T02:47:54;14.80;;;9.98;;
37545;SDS011;23389;52.484;13.572;2023-02-21T02:50:21;14.23;;;9.47;;
37545;SDS011;23389;52.484;13.572;2023-02-21T02:52:50;13.43;;;10.18;;
37545;SDS011;23389;52.484;13.572;2023-02-21T02:55:24;14.82;;;10.65;;
37545;SDS011;23389;52.484;13.572;2023-02-21T02:57:50;14.77;;;10.18;;
37545;SDS011;23389;52.484;13.572;2023-02-21T03:00:16;16.30;;;10.73;;
37545;SDS011;23389;52.484;13.572;2023-02-21T03:02:48;14.55;;;10.30;;
37545;SDS011;23389;52.484;13.572;2023-02-21T03:07:58;14.18;;;9.88;;
37545;SDS011;23389;52.484;13.572;2023-02-21T03:10:29;15.15;;;10.25;;
37545;SDS011;23389;52.484;13.572;2023-02-21T03:15:32;15.40;;;10.98;;
37545;SDS011;23389;52.484;13.572;2023-02-21T03:18:02;13.93;;;9.88;;
37545;SDS011;23389;52.484;13.572;2023-02-21T03:20:31;15.73;;;10.93;;
37545;SDS011;23389;52.484;13.572;2023-02-21T03:22:57;15.65;;;10.45;;
37545;SDS011;23389;52.484;13.572;2023-02-21T03:25:22;16.98;;;10.95;;
37545;SDS011;23389;52.484;13.572;2023-02-21T03:27:48;16.42;;;10.93;;
37545;SDS011;23389;52.484;13.572;2023-02-21T03:30:15;14.90;;;10.38;;
37545;SDS011;23389;52.484;13.572;2023-02-21T03:32:58;15.98;;;10.23;;
37545;SDS011;23389;52.484;13.572;2023-02-21T03:35:26;14.65;;;9.70;;
37545;SDS011;23389;52.484;13.572;2023-02-21T03:37:53;14.75;;;10.27;;
37545;SDS011;23389;52.484;13.572;2023-02-21T03:40:22;14.38;;;10.15;;
37545;SDS011;23389;52.484;13.572;2023-02-21T03:42:48;14.60;;;10.02;;
37545;SDS011;23389;52.484;13.572;2023-02-21T03:45:13;14.35;;;9.65;;
37545;SDS011;23389;52.484;13.572;2023-02-21T03:47:39;13.82;;;9.45;;
37545;SDS011;23389;52.484;13.572;2023-02-21T03:50:04;14.90;;;9.68;;
37545;SDS011;23389;52.484;13.572;2023-02-21T03:52:29;14.70;;;10.10;;
37545;SDS011;23389;52.484;13.572;2023-02-21T03:54:54;13.77;;;10.15;;
37545;SDS011;23389;52.484;13.572;2023-02-21T03:57:20;14.65;;;9.10;;
37545;SDS011;23389;52.484;13.572;2023-02-21T03:59:45;14.30;;;9.63;;
37545;SDS011;23389;52.484;13.572;2023-02-21T04:02:10;15.25;;;9.77;;
37545;SDS011;23389;52.484;13.572;2023-02-21T04:04:35;14.82;;;10.02;;
37545;SDS011;23389;52.484;13.572;2023-02-21T04:07:00;13.43;;;9.07;;
37545;SDS011;23389;52.484;13.572;2023-02-21T04:09:25;13.60;;;9.53;;
37545;SDS011;23389;52.484;13.572;2023-02-21T04:11:51;15.50;;;10.50;;
37545;SDS011;23389;52.484;13.572;2023-02-21T04:14:16;15.32;;;9.85;;
37545;SDS011;23389;52.484;13.572;2023-02-21T04:16:41;13.00;;;9.15;;
37545;SDS011;23389;52.484;13.572;2023-02-21T04:19:06;12.63;;;9.00;;
37545;SDS011;23389;52.484;13.572;2023-02-21T04:21:31;12.88;;;8.95;;
37545;SDS011;23389;52.484;13.572;2023-02-21T04:23:57;12.90;;;8.57;;
37545;SDS011;23389;52.484;13.572;2023-02-21T04:26:22;13.27;;;9.23;;
37545;SDS011;23389;52.484;13.572;2023-02-21T04:28:48;12.50;;;9.20;;
37545;SDS011;23389;52.484;13.572;2023-02-21T04:31:14;13.10;;;9.25;;
37545;SDS011;23389;52.484;13.572;2023-02-21T04:33:39;14.77;;;9.48;;
37545;SDS011;23389;52.484;13.572;2023-02-21T04:36:05;15.30;;;9.02;;
37545;SDS011;23389;52.484;13.572;2023-02-21T04:38:30;11.43;;;8.10;;
37545;SDS011;23389;52.484;13.572;2023-02-21T04:40:55;13.18;;;9.00;;
37545;SDS011;23389;52.484;13.572;2023-02-21T04:43:20;13.27;;;8.88;;
37545;SDS011;23389;52.484;13.572;2023-02-21T04:45:45;13.43;;;9.77;;
37545;SDS011;23389;52.484;13.572;2023-02-21T04:48:10;13.70;;;9.25;;
37545;SDS011;23389;52.484;13.572;2023-02-21T04:50:35;13.23;;;8.90;;
37545;SDS011;23389;52.484;13.572;2023-02-21T04:53:01;12.68;;;8.98;;
37545;SDS011;23389;52.484;13.572;2023-02-21T04:55:26;11.88;;;8.50;;
37545;SDS011;23389;52.484;13.572;2023-02-21T04:57:51;12.82;;;8.45;;
37545;SDS011;23389;52.484;13.572;2023-02-21T05:00:16;13.50;;;8.98;;
37545;SDS011;23389;52.484;13.572;2023-02-21T05:02:45;13.68;;;9.32;;
37545;SDS011;23389;52.484;13.572;2023-02-21T05:05:10;14.40;;;9.88;;
37545;SDS011;23389;52.484;13.572;2023-02-21T05:07:35;15.23;;;9.82;;
37545;SDS011;23389;52.484;13.572;2023-02-21T05:10:01;13.27;;;9.33;;
37545;SDS011;23389;52.484;13.572;2023-02-21T05:12:26;15.73;;;10.27;;
37545;SDS011;23389;52.484;13.572;2023-02-21T05:14:51;14.18;;;10.30;;
37545;SDS011;23389;52.484;13.572;2023-02-21T05:17:16;14.90;;;10.30;;
37545;SDS011;23389;52.484;13.572;2023-02-21T05:19:41;16.53;;;11.27;;
37545;SDS011;23389;52.484;13.572;2023-02-21T05:22:06;17.95;;;11.75;;
37545;SDS011;23389;52.484;13.572;2023-02-21T05:24:32;16.97;;;11.40;;
37545;SDS011;23389;52.484;13.572;2023-02-21T05:26:57;17.52;;;12.15;;
37545;SDS011;23389;52.484;13.572;2023-02-21T05:29:22;19.58;;;12.18;;
37545;SDS011;23389;52.484;13.572;2023-02-21T05:31:48;19.65;;;12.65;;
37545;SDS011;23389;52.484;13.572;2023-02-21T05:34:13;18.63;;;12.00;;
37545;SDS011;23389;52.484;13.572;2023-02-21T05:36:38;18.70;;;12.23;;
37545;SDS011;23389;52.484;13.572;2023-02-21T05:39:04;23.23;;;14.63;;
37545;SDS011;23389;52.484;13.572;2023-02-21T05:41:30;20.55;;;13.50;;
37545;SDS011;23389;52.484;13.572;2023-02-21T05:43:55;23.10;;;13.73;;
37545;SDS011;23389;52.484;13.572;2023-02-21T05:46:24;20.20;;;13.48;;
37545;SDS011;23389;52.484;13.572;2023-02-21T05:48:50;25.70;;;16.23;;
37545;SDS011;23389;52.484;13.572;2023-02-21T05:51:15;22.77;;;14.95;;
37545;SDS011;23389;52.484;13.572;2023-02-21T05:53:41;19.05;;;12.20;;
37545;SDS011;23389;52.484;13.572;2023-02-21T05:56:06;24.40;;;15.30;;
37545;SDS011;23389;52.484;13.572;2023-02-21T05:58:31;19.30;;;13.05;;
37545;SDS011;23389;52.484;13.572;2023-02-21T06:00:56;19.05;;;11.73;;
37545;SDS011;23389;52.484;13.572;2023-02-21T06:03:21;21.52;;;12.95;;
37545;SDS011;23389;52.484;13.572;2023-02-21T06:05:46;24.35;;;15.65;;
37545;SDS011;23389;52.484;13.572;2023-02-21T06:08:12;18.97;;;12.13;;
37545;SDS011;23389;52.484;13.572;2023-02-21T06:10:37;18.13;;;11.70;;
37545;SDS011;23389;52.484;13.572;2023-02-21T06:13:02;17.50;;;11.82;;
37545;SDS011;23389;52.484;13.572;2023-02-21T06:15:27;17.42;;;12.63;;
37545;SDS011;23389;52.484;13.572;2023-02-21T06:17:52;16.13;;;10.85;;
37545;SDS011;23389;52.484;13.572;2023-02-21T06:20:17;16.00;;;11.00;;
37545;SDS011;23389;52.484;13.572;2023-02-21T06:22:42;16.45;;;11.10;;
37545;SDS011;23389;52.484;13.572;2023-02-21T06:25:08;16.73;;;12.40;;
37545;SDS011;23389;52.484;13.572;2023-02-21T06:27:33;16.10;;;11.90;;
37545;SDS011;23389;52.484;13.572;2023-02-21T06:29:58;16.27;;;12.00;;
37545;SDS011;23389;52.484;13.572;2023-02-21T06:32:23;17.98;;;12.57;;
37545;SDS011;23389;52.484;13.572;2023-02-21T06:34:49;16.25;;;12.15;;
37545;SDS011;23389;52.484;13.572;2023-02-21T06:37:14;17.60;;;12.83;;
37545;SDS011;23389;52.484;13.572;2023-02-21T06:39:39;14.73;;;10.52;;
37545;SDS011;23389;52.484;13.572;2023-02-21T06:42:04;14.70;;;10.43;;
37545;SDS011;23389;52.484;13.572;2023-02-21T06:44:30;13.57;;;9.93;;
37545;SDS011;23389;52.484;13.572;2023-02-21T06:46:55;15.38;;;10.82;;
37545;SDS011;23389;52.484;13.572;2023-02-21T06:49:20;14.38;;;10.38;;
37545;SDS011;23389;52.484;13.572;2023-02-21T06:51:45;14.70;;;10.85;;
37545;SDS011;23389;52.484;13.572;2023-02-21T06:54:11;16.55;;;10.55;;
37545;SDS011;23389;52.484;13.572;2023-02-21T06:56:36;13.73;;;9.27;;
37545;SDS011;23389;52.484;13.572;2023-02-21T06:59:01;16.60;;;10.13;;
37545;SDS011;23389;52.484;13.572;2023-02-21T07:01:27;15.50;;;9.65;;
37545;SDS011;23389;52.484;13.572;2023-02-21T07:03:53;12.70;;;9.05;;
37545;SDS011;23389;52.484;13.572;2023-02-21T07:06:19;13.60;;;9.25;;
37545;SDS011;23389;52.484;13.572;2023-02-21T07:08:44;13.70;;;8.88;;
37545;SDS011;23389;52.484;13.572;2023-02-21T07:11:09;12.50;;;7.60;;
37545;SDS011;23389;52.484;13.572;2023-02-21T07:13:34;14.55;;;8.40;;
37545;SDS011;23389;52.484;13.572;2023-02-21T07:16:00;11.87;;;8.10;;
37545;SDS011;23389;52.484;13.572;2023-02-21T07:18:25;13.23;;;8.25;;
37545;SDS011;23389;52.484;13.572;2023-02-21T07:20:50;14.13;;;8.90;;
37545;SDS011;23389;52.484;13.572;2023-02-21T07:23:15;12.93;;;8.32;;
37545;SDS011;23389;52.484;13.572;2023-02-21T07:25:41;12.43;;;7.82;;
37545;SDS011;23389;52.484;13.572;2023-02-21T07:28:06;10.40;;;7.05;;
37545;SDS011;23389;52.484;13.572;2023-02-21T07:30:31;13.93;;;8.23;;
37545;SDS011;23389;52.484;13.572;2023-02-21T07:32:57;11.60;;;7.60;;
37545;SDS011;23389;52.484;13.572;2023-02-21T07:35:22;11.82;;;7.70;;
37545;SDS011;23389;52.484;13.572;2023-02-21T07:37:47;11.25;;;7.20;;
37545;SDS011;23389;52.484;13.572;2023-02-21T07:40:12;10.85;;;7.28;;
37545;SDS011;23389;52.484;13.572;2023-02-21T07:42:39;10.40;;;6.63;;
37545;SDS011;23389;52.484;13.572;2023-02-21T07:45:07;9.93;;;5.88;;
37545;SDS011;23389;52.484;13.572;2023-02-21T07:47:32;7.50;;;4.60;;
37545;SDS011;23389;52.484;13.572;2023-02-21T07:49:57;9.50;;;4.55;;
37545;SDS011;23389;52.484;13.572;2023-02-21T07:52:22;9.30;;;5.93;;
37545;SDS011;23389;52.484;13.572;2023-02-21T07:54:48;6.07;;;3.17;;
37545;SDS011;23389;52.484;13.572;2023-02-21T07:57:14;8.38;;;4.30;;
37545;SDS011;23389;52.484;13.572;2023-02-21T07:59:39;6.20;;;3.25;;
37545;SDS011;23389;52.484;13.572;2023-02-21T08:02:04;7.30;;;3.97;;
37545;SDS011;23389;52.484;13.572;2023-02-21T08:04:29;6.38;;;3.30;;
37545;SDS011;23389;52.484;13.572;2023-02-21T08:06:58;5.50;;;2.92;;
37545;SDS011;23389;52.484;13.572;2023-02-21T08:09:24;6.90;;;3.30;;
37545;SDS011;23389;52.484;13.572;2023-02-21T08:11:49;6.93;;;2.50;;
37545;SDS011;23389;52.484;13.572;2023-02-21T08:14:14;5.53;;;2.90;;
37545;SDS011;23389;52.484;13.572;2023-02-21T08:16:39;7.03;;;2.30;;
37545;SDS011;23389;52.484;13.572;2023-02-21T08:19:04;4.72;;;2.00;;
37545;SDS011;23389;52.484;13.572;2023-02-21T08:21:30;4.10;;;1.93;;
37545;SDS011;23389;52.484;13.572;2023-02-21T08:23:55;5.45;;;2.70;;
37545;SDS011;23389;52.484;13.572;2023-02-21T08:26:20;4.17;;;2.00;;
37545;SDS011;23389;52.484;13.572;2023-02-21T08:28:45;5.85;;;2.30;;
37545;SDS011;23389;52.484;13.572;2023-02-21T08:31:11;5.45;;;2.78;;
37545;SDS011;23389;52.484;13.572;2023-02-21T08:33:36;3.75;;;1.73;;
37545;SDS011;23389;52.484;13.572;2023-02-21T08:36:01;4.70;;;1.80;;
37545;SDS011;23389;52.484;13.572;2023-02-21T08:38:26;4.10;;;1.65;;
37545;SDS011;23389;52.484;13.572;2023-02-21T08:40:51;3.92;;;1.77;;
37545;SDS011;23389;52.484;13.572;2023-02-21T08:43:16;4.27;;;1.53;;
37545;SDS011;23389;52.484;13.572;2023-02-21T08:45:41;3.65;;;1.60;;
37545;SDS011;23389;52.484;13.572;2023-02-21T08:48:07;4.57;;;1.42;;
37545;SDS011;23389;52.484;13.572;2023-02-21T08:50:32;3.08;;;1.40;;
37545;SDS011;23389;52.484;13.572;2023-02-21T08:52:57;3.83;;;1.70;;
37545;SDS011;23389;52.484;13.572;2023-02-21T08:55:22;3.20;;;1.20;;
37545;SDS011;23389;52.484;13.572;2023-02-21T08:57:48;3.42;;;1.35;;
37545;SDS011;23389;52.484;13.572;2023-02-21T09:00:13;2.20;;;1.17;;
37545;SDS011;23389;52.484;13.572;2023-02-21T09:02:39;2.45;;;1.10;;
37545;SDS011;23389;52.484;13.572;2023-02-21T09:05:12;4.30;;;1.40;;
37545;SDS011;23389;52.484;13.572;2023-02-21T09:07:38;2.95;;;1.10;;
37545;SDS011;23389;52.484;13.572;2023-02-21T09:10:03;5.53;;;1.30;;
37545;SDS011;23389;52.484;13.572;2023-02-21T09:12:28;2.45;;;1.00;;
37545;SDS011;23389;52.484;13.572;2023-02-21T09:14:53;4.65;;;1.27;;
37545;SDS011;23389;52.484;13.572;2023-02-21T09:17:18;5.30;;;1.30;;
37545;SDS011;23389;52.484;13.572;2023-02-21T09:19:43;2.85;;;1.00;;
37545;SDS011;23389;52.484;13.572;2023-02-21T09:22:09;4.38;;;1.10;;
37545;SDS011;23389;52.484;13.572;2023-02-21T09:24:34;4.60;;;1.40;;
37545;SDS011;23389;52.484;13.572;2023-02-21T09:26:59;2.45;;;1.00;;
37545;SDS011;23389;52.484;13.572;2023-02-21T09:29:30;3.80;;;1.30;;
37545;SDS011;23389;52.484;13.572;2023-02-21T09:31:56;4.32;;;1.30;;
37545;SDS011;23389;52.484;13.572;2023-02-21T09:34:21;6.40;;;1.50;;
37545;SDS011;23389;52.484;13.572;2023-02-21T09:36:47;4.50;;;0.97;;
37545;SDS011;23389;52.484;13.572;2023-02-21T09:39:12;6.10;;;1.40;;
37545;SDS011;23389;52.484;13.572;2023-02-21T09:41:38;6.18;;;1.48;;
37545;SDS011;23389;52.484;13.572;2023-02-21T09:44:04;7.78;;;1.50;;
37545;SDS011;23389;52.484;13.572;2023-02-21T09:46:38;8.60;;;1.85;;
37545;SDS011;23389;52.484;13.572;2023-02-21T09:49:05;6.43;;;1.23;;
37545;SDS011;23389;52.484;13.572;2023-02-21T09:51:31;8.77;;;1.50;;
37545;SDS011;23389;52.484;13.572;2023-02-21T09:53:57;5.57;;;1.90;;
37545;SDS011;23389;52.484;13.572;2023-02-21T09:56:26;9.88;;;1.95;;
37545;SDS011;23389;52.484;13.572;2023-02-21T09:58:54;7.40;;;1.40;;
37545;SDS011;23389;52.484;13.572;2023-02-21T10:03:59;7.85;;;1.80;;
37545;SDS011;23389;52.484;13.572;2023-02-21T10:06:38;5.97;;;1.42;;
37545;SDS011;23389;52.484;13.572;2023-02-21T10:09:20;10.07;;;1.60;;
37545;SDS011;23389;52.484;13.572;2023-02-21T10:19:34;9.52;;;2.47;;
37545;SDS011;23389;52.484;13.572;2023-02-21T10:22:00;7.50;;;1.80;;
37545;SDS011;23389;52.484;13.572;2023-02-21T10:24:27;9.02;;;1.83;;
37545;SDS011;23389;52.484;13.572;2023-02-21T10:26:56;9.32;;;1.65;;
37545;SDS011;23389;52.484;13.572;2023-02-21T10:29:26;8.88;;;1.92;;
37545;SDS011;23389;52.484;13.572;2023-02-21T10:31:55;5.93;;;1.35;;
37545;SDS011;23389;52.484;13.572;2023-02-21T10:34:24;10.75;;;2.10;;
37545;SDS011;23389;52.484;13.572;2023-02-21T10:36:50;5.90;;;1.40;;
37545;SDS011;23389;52.484;13.572;2023-02-21T10:39:17;8.50;;;1.67;;
37545;SDS011;23389;52.484;13.572;2023-02-21T10:41:43;11.40;;;2.13;;
37545;SDS011;23389;52.484;13.572;2023-02-21T10:46:36;9.75;;;1.70;;
37545;SDS011;23389;52.484;13.572;2023-02-21T10:52:01;10.60;;;2.05;;
37545;SDS011;23389;52.484;13.572;2023-02-21T10:54:27;11.93;;;1.77;;
37545;SDS011;23389;52.484;13.572;2023-02-21T10:56:52;10.90;;;1.67;;
37545;SDS011;23389;52.484;13.572;2023-02-21T10:59:27;8.07;;;2.13;;
37545;SDS011;23389;52.484;13.572;2023-02-21T11:01:53;11.50;;;2.05;;
37545;SDS011;23389;52.484;13.572;2023-02-21T11:06:45;9.10;;;1.70;;
37545;SDS011;23389;52.484;13.572;2023-02-21T11:11:59;8.10;;;1.98;;
37545;SDS011;23389;52.484;13.572;2023-02-21T11:14:25;8.27;;;2.20;;
37545;SDS011;23389;52.484;13.572;2023-02-21T11:22:12;11.15;;;2.38;;
37545;SDS011;23389;52.484;13.572;2023-02-21T11:24:49;6.10;;;2.22;;
37545;SDS011;23389;52.484;13.572;2023-02-21T11:27:15;11.52;;;2.05;;
37545;SDS011;23389;52.484;13.572;2023-02-21T11:29:41;9.85;;;1.60;;
37545;SDS011;23389;52.484;13.572;2023-02-21T11:32:10;7.28;;;1.67;;
37545;SDS011;23389;52.484;13.572;2023-02-21T11:34:36;8.98;;;1.80;;
37545;SDS011;23389;52.484;13.572;2023-02-21T11:37:02;9.07;;;1.90;;
37545;SDS011;23389;52.484;13.572;2023-02-21T11:39:31;13.05;;;1.77;;
37545;SDS011;23389;52.484;13.572;2023-02-21T11:42:01;10.95;;;1.85;;
37545;SDS011;23389;52.484;13.572;2023-02-21T11:44:40;7.70;;;2.05;;
37545;SDS011;23389;52.484;13.572;2023-02-21T11:47:07;13.13;;;2.13;;
37545;SDS011;23389;52.484;13.572;2023-02-21T11:52:21;11.20;;;2.08;;
37545;SDS011;23389;52.484;13.572;2023-02-21T11:54:48;11.57;;;1.73;;
37545;SDS011;23389;52.484;13.572;2023-02-21T11:57:19;9.80;;;2.30;;
37545;SDS011;23389;52.484;13.572;2023-02-21T11:59:54;10.65;;;2.47;;
37545;SDS011;23389;52.484;13.572;2023-02-21T12:02:27;14.30;;;1.98;;
37545;SDS011;23389;52.484;13.572;2023-02-21T12:07:43;11.43;;;2.20;;
37545;SDS011;23389;52.484;13.572;2023-02-21T12:10:20;11.90;;;2.72;;
37545;SDS011;23389;52.484;13.572;2023-02-21T12:12:57;9.77;;;2.20;;
37545;SDS011;23389;52.484;13.572;2023-02-21T12:15:24;10.30;;;2.35;;
37545;SDS011;23389;52.484;13.572;2023-02-21T12:17:56;13.93;;;2.65;;
37545;SDS011;23389;52.484;13.572;2023-02-21T12:20:33;9.45;;;2.33;;
37545;SDS011;23389;52.484;13.572;2023-02-21T12:23:16;13.40;;;2.75;;
37545;SDS011;23389;52.484;13.572;2023-02-21T12:25:53;10.57;;;2.80;;
37545;SDS011;23389;52.484;13.572;2023-02-21T12:30:56;10.38;;;2.15;;
37545;SDS011;23389;52.484;13.572;2023-02-21T12:33:27;11.10;;;2.00;;
37545;SDS011;23389;52.484;13.572;2023-02-21T12:36:09;10.70;;;2.33;;
37545;SDS011;23389;52.484;13.572;2023-02-21T12:38:47;11.25;;;2.65;;
37545;SDS011;23389;52.484;13.572;2023-02-21T12:43:45;12.52;;;2.30;;
37545;SDS011;23389;52.484;13.572;2023-02-21T12:49:00;15.27;;;2.50;;
37545;SDS011;23389;52.484;13.572;2023-02-21T12:54:20;13.03;;;3.10;;
37545;SDS011;23389;52.484;13.572;2023-02-21T12:56:51;12.27;;;2.47;;
37545;SDS011;23389;52.484;13.572;2023-02-21T12:59:20;14.35;;;2.80;;
37545;SDS011;23389;52.484;13.572;2023-02-21T13:04:31;10.20;;;2.53;;
37545;SDS011;23389;52.484;13.572;2023-02-21T13:07:03;19.63;;;3.90;;
37545;SDS011;23389;52.484;13.572;2023-02-21T13:09:35;8.93;;;2.53;;
37545;SDS011;23389;52.484;13.572;2023-02-21T13:14:29;9.97;;;2.30;;
37545;SDS011;23389;52.484;13.572;2023-02-21T13:16:55;13.73;;;2.88;;
37545;SDS011;23389;52.484;13.572;2023-02-21T13:19:21;10.20;;;2.55;;
37545;SDS011;23389;52.484;13.572;2023-02-21T13:24:24;14.55;;;2.67;;
37545;SDS011;23389;52.484;13.572;2023-02-21T13:29:21;11.02;;;2.40;;
37545;SDS011;23389;52.484;13.572;2023-02-21T13:31:48;13.68;;;2.55;;
37545;SDS011;23389;52.484;13.572;2023-02-21T13:34:19;11.18;;;2.28;;
37545;SDS011;23389;52.484;13.572;2023-02-21T13:36:47;9.65;;;2.20;;
37545;SDS011;23389;52.484;13.572;2023-02-21T13:41:39;11.63;;;2.63;;
37545;SDS011;23389;52.484;13.572;2023-02-21T13:44:08;11.85;;;2.28;;
37545;SDS011;23389;52.484;13.572;2023-02-21T13:51:47;8.30;;;1.77;;
37545;SDS011;23389;52.484;13.572;2023-02-21T13:54:12;12.88;;;2.30;;
37545;SDS011;23389;52.484;13.572;2023-02-21T13:56:44;11.63;;;2.30;;
37545;SDS011;23389;52.484;13.572;2023-02-21T13:59:29;10.93;;;2.55;;
37545;SDS011;23389;52.484;13.572;2023-02-21T14:02:15;15.00;;;3.45;;
37545;SDS011;23389;52.484;13.572;2023-02-21T14:07:38;9.50;;;2.42;;
37545;SDS011;23389;52.484;13.572;2023-02-21T14:10:04;13.38;;;2.50;;
37545;SDS011;23389;52.484;13.572;2023-02-21T14:12:30;9.75;;;2.25;;
37545;SDS011;23389;52.484;13.572;2023-02-21T14:15:02;12.40;;;2.30;;
37545;SDS011;23389;52.484;13.572;2023-02-21T14:17:30;16.10;;;2.85;;
37545;SDS011;23389;52.484;13.572;2023-02-21T14:19:55;16.08;;;3.40;;
37545;SDS011;23389;52.484;13.572;2023-02-21T14:22:23;16.15;;;2.83;;
37545;SDS011;23389;52.484;13.572;2023-02-21T14:24:50;12.00;;;2.85;;
37545;SDS011;23389;52.484;13.572;2023-02-21T14:32:23;11.82;;;3.08;;
37545;SDS011;23389;52.484;13.572;2023-02-21T14:39:59;17.27;;;2.97;;
37545;SDS011;23389;52.484;13.572;2023-02-21T14:42:31;15.25;;;2.97;;
37545;SDS011;23389;52.484;13.572;2023-02-21T14:50:06;17.35;;;3.35;;
37545;SDS011;23389;52.484;13.572;2023-02-21T14:52:37;14.20;;;3.03;;
37545;SDS011;23389;52.484;13.572;2023-02-21T14:55:17;14.43;;;3.13;;
37545;SDS011;23389;52.484;13.572;2023-02-21T14:57:59;15.20;;;3.30;;
37545;SDS011;23389;52.484;13.572;2023-02-21T15:03:01;13.35;;;2.80;;
37545;SDS011;23389;52.484;13.572;2023-02-21T15:05:30;11.10;;;2.42;;
37545;SDS011;23389;52.484;13.572;2023-02-21T15:10:24;16.05;;;3.05;;
37545;SDS011;23389;52.484;13.572;2023-02-21T15:12:50;12.88;;;2.70;;
37545;SDS011;23389;52.484;13.572;2023-02-21T15:15:23;16.90;;;3.42;;
37545;SDS011;23389;52.484;13.572;2023-02-21T15:17:55;14.85;;;3.22;;
37545;SDS011;23389;52.484;13.572;2023-02-21T15:20:21;10.57;;;2.08;;
37545;SDS011;23389;52.484;13.572;2023-02-21T15:22:53;15.40;;;3.30;;
37545;SDS011;23389;52.484;13.572;2023-02-21T15:25:19;14.35;;;3.55;;
37545;SDS011;23389;52.484;13.572;2023-02-21T15:30:15;11.43;;;2.78;;
37545;SDS011;23389;52.484;13.572;2023-02-21T15:32:40;12.55;;;3.28;;
37545;SDS011;23389;52.484;13.572;2023-02-21T15:35:07;12.43;;;3.00;;
37545;SDS011;23389;52.484;13.572;2023-02-21T15:40:01;14.35;;;2.90;;
37545;SDS011;23389;52.484;13.572;2023-02-21T15:42:29;17.17;;;3.70;;
37545;SDS011;23389;52.484;13.572;2023-02-21T15:44:56;17.88;;;3.55;;
37545;SDS011;23389;52.484;13.572;2023-02-21T15:47:23;12.18;;;3.13;;
37545;SDS011;23389;52.484;13.572;2023-02-21T15:50:06;14.10;;;3.20;;
37545;SDS011;23389;52.484;13.572;2023-02-21T15:58:11;11.98;;;3.40;;
37545;SDS011;23389;52.484;13.572;2023-02-21T16:00:38;19.05;;;3.42;;
37545;SDS011;23389;52.484;13.572;2023-02-21T16:05:47;19.30;;;3.33;;
37545;SDS011;23389;52.484;13.572;2023-02-21T16:08:13;12.50;;;2.93;;
37545;SDS011;23389;52.484;13.572;2023-02-21T16:10:38;15.45;;;3.22;;
37545;SDS011;23389;52.484;13.572;2023-02-21T16:13:05;14.43;;;3.70;;
37545;SDS011;23389;52.484;13.572;2023-02-21T16:15:34;13.80;;;2.67;;
37545;SDS011;23389;52.484;13.572;2023-02-21T16:18:07;14.65;;;3.30;;
37545;SDS011;23389;52.484;13.572;2023-02-21T16:20:33;16.75;;;3.67;;
37545;SDS011;23389;52.484;13.572;2023-02-21T16:23:13;17.45;;;4.00;;
37545;SDS011;23389;52.484;13.572;2023-02-21T16:28:22;16.52;;;3.58;;
37545;SDS011;23389;52.484;13.572;2023-02-21T16:30:47;16.48;;;3.10;;
37545;SDS011;23389;52.484;13.572;2023-02-21T16:33:12;18.10;;;4.45;;
37545;SDS011;23389;52.484;13.572;2023-02-21T16:35:38;13.60;;;3.45;;
37545;SDS011;23389;52.484;13.572;2023-02-21T16:38:03;13.05;;;3.67;;